sensor_id;sensor_type;location;lat;lon;timestamp;pressure;altitude;pressure_sealevel;temperature;humidity
79703;BME280;69172;52.352;5.006;2024-03-17T00:00:20;102359.16;;;6.43;100.00
79703;BME280;69172;52.352;5.006;2024-03-17T00:02:45;102362.94;;;6.38;100.00
79703;BME280;69172;52.352;5.006;2024-03-17T00:05:19;102362.03;;;6.38;100.00
79703;BME280;69172;52.352;5.006;2024-03-17T00:07:44;102354.50;;;6.39;100.00
79703;BME280;69172;52.352;5.006;2024-03-17T00:10:10;102348.50;;;6.39;100.00
79703;BME280;69172;52.352;5.006;2024-03-17T00:12:36;102350.91;;;6.46;100.00
79703;BME280;69172;52.352;5.006;2024-03-17T00:15:04;102352.84;;;6.40;100.00
79703;BME280;69172;52.352;5.006;2024-03-17T00:17:30;102360.53;;;6.40;100.00
79703;BME280;69172;52.352;5.006;2024-03-17T00:19:55;102346.41;;;6.35;100.00
79703;BME280;69172;52.352;5.006;2024-03-17T00:22:22;102345.66;;;6.36;100.00
79703;BME280;69172;52.352;5.006;2024-03-17T00:24:48;102346.72;;;6.38;100.00
79703;BME280;69172;52.352;5.006;2024-03-17T00:27:13;102344.16;;;6.38;100.00
79703;BME280;69172;52.352;5.006;2024-03-17T00:29:39;102345.38;;;6.33;100.00
79703;BME280;69172;52.352;5.006;2024-03-17T00:32:05;102343.84;;;6.35;100.00
79703;BME280;69172;52.352;5.006;2024-03-17T00:34:31;102348.06;;;6.34;100.00
79703;BME280;69172;52.352;5.006;2024-03-17T00:36:57;102335.00;;;6.31;100.00
79703;BME280;69172;52.352;5.006;2024-03-17T00:39:22;102339.34;;;6.32;100.00
79703;BME280;69172;52.352;5.006;2024-03-17T00:41:48;102339.97;;;6.30;100.00
79703;BME280;69172;52.352;5.006;2024-03-17T00:44:14;102342.97;;;6.26;100.00
79703;BME280;69172;52.352;5.006;2024-03-17T00:46:41;102339.38;;;6.24;100.00
79703;BME280;69172;52.352;5.006;2024-03-17T00:49:08;102332.16;;;6.20;100.00
79703;BME280;69172;52.352;5.006;2024-03-17T00:51:34;102338.63;;;6.16;100.00
79703;BME280;69172;52.352;5.006;2024-03-17T00:53:59;102332.44;;;6.23;100.00
79703;BME280;69172;52.352;5.006;2024-03-17T00:56:24;102326.91;;;6.18;100.00
79703;BME280;69172;52.352;5.006;2024-03-17T00:58:50;102333.06;;;6.20;100.00
79703;BME280;69172;52.352;5.006;2024-03-17T01:01:17;102322.09;;;6.21;100.00
79703;BME280;69172;52.352;5.006;2024-03-17T01:03:45;102325.69;;;6.23;100.00
79703;BME280;69172;52.352;5.006;2024-03-17T01:06:10;102323.44;;;6.26;100.00
79703;BME280;69172;52.352;5.006;2024-03-17T01:08:38;102316.81;;;6.28;100.00
79703;BME280;69172;52.352;5.006;2024-03-17T01:11:03;102319.22;;;6.27;100.00
79703;BME280;69172;52.352;5.006;2024-03-17T01:13:32;102314.25;;;6.28;100.00
79703;BME280;69172;52.352;5.006;2024-03-17T01:15:59;102313.63;;;6.31;100.00
79703;BME280;69172;52.352;5.006;2024-03-17T01:18:25;102305.38;;;6.33;100.00
79703;BME280;69172;52.352;5.006;2024-03-17T01:20:51;102302.06;;;6.34;100.00
79703;BME280;69172;52.352;5.006;2024-03-17T01:23:17;102299.22;;;6.31;100.00
79703;BME280;69172;52.352;5.006;2024-03-17T01:25:43;102298.16;;;6.38;100.00
79703;BME280;69172;52.352;5.006;2024-03-17T01:28:08;102305.81;;;6.38;100.00
79703;BME280;69172;52.352;5.006;2024-03-17T01:30:34;102299.81;;;6.37;100.00
79703;BME280;69172;52.352;5.006;2024-03-17T01:32:59;102298.16;;;6.38;100.00
79703;BME280;69172;52.352;5.006;2024-03-17T01:35:25;102292.72;;;6.43;100.00
79703;BME280;69172;52.352;5.006;2024-03-17T01:37:51;102288.78;;;6.47;100.00
79703;BME280;69172;52.352;5.006;2024-03-17T01:40:18;102284.75;;;6.49;100.00
79703;BME280;69172;52.352;5.006;2024-03-17T01:42:45;102276.63;;;6.44;100.00
79703;BME280;69172;52.352;5.006;2024-03-17T01:47:41;102267.16;;;6.52;100.00
79703;BME280;69172;52.352;5.006;2024-03-17T01:50:07;102279.16;;;6.53;100.00
79703;BME280;69172;52.352;5.006;2024-03-17T01:52:34;102273.56;;;6.66;100.00
79703;BME280;69172;52.352;5.006;2024-03-17T01:55:00;102260.78;;;6.66;100.00
79703;BME280;69172;52.352;5.006;2024-03-17T01:57:26;102267.06;;;6.69;100.00
79703;BME280;69172;52.352;5.006;2024-03-17T01:59:52;102266.16;;;6.69;100.00
79703;BME280;69172;52.352;5.006;2024-03-17T02:02:18;102257.00;;;6.71;100.00
79703;BME280;69172;52.352;5.006;2024-03-17T02:04:44;102263.00;;;6.71;100.00
79703;BME280;69172;52.352;5.006;2024-03-17T02:07:10;102260.56;;;6.73;100.00
79703;BME280;69172;52.352;5.006;2024-03-17T02:09:35;102255.13;;;6.78;100.00
79703;BME280;69172;52.352;5.006;2024-03-17T02:12:01;102247.13;;;6.84;100.00
79703;BME280;69172;52.352;5.006;2024-03-17T02:14:26;102245.31;;;6.83;100.00
79703;BME280;69172;52.352;5.006;2024-03-17T02:16:52;102249.53;;;6.82;100.00
79703;BME280;69172;52.352;5.006;2024-03-17T02:19:18;102244.59;;;6.84;100.00
79703;BME280;69172;52.352;5.006;2024-03-17T02:21:43;102239.59;;;6.85;100.00
79703;BME280;69172;52.352;5.006;2024-03-17T02:24:09;102231.63;;;6.82;100.00
79703;BME280;69172;52.352;5.006;2024-03-17T02:26:34;102230.44;;;6.87;100.00
79703;BME280;69172;52.352;5.006;2024-03-17T02:29:00;102236.88;;;6.92;100.00
79703;BME280;69172;52.352;5.006;2024-03-17T02:31:28;102231.59;;;6.91;100.00
79703;BME280;69172;52.352;5.006;2024-03-17T02:33:53;102236.09;;;6.93;100.00
79703;BME280;69172;52.352;5.006;2024-03-17T02:36:18;102224.97;;;6.93;100.00
79703;BME280;69172;52.352;5.006;2024-03-17T02:38:45;102228.41;;;6.93;100.00
79703;BME280;69172;52.352;5.006;2024-03-17T02:41:33;102224.78;;;7.00;100.00
79703;BME280;69172;52.352;5.006;2024-03-17T02:43:58;102223.41;;;7.03;100.00
79703;BME280;69172;52.352;5.006;2024-03-17T02:46:31;102220.50;;;7.09;100.00
79703;BME280;69172;52.352;5.006;2024-03-17T02:52:15;102205.44;;;7.12;100.00
79703;BME280;69172;52.352;5.006;2024-03-17T02:54:43;102218.75;;;7.18;100.00
79703;BME280;69172;52.352;5.006;2024-03-17T02:57:08;102222.09;;;7.17;100.00
79703;BME280;69172;52.352;5.006;2024-03-17T02:59:35;102215.59;;;7.20;100.00
79703;BME280;69172;52.352;5.006;2024-03-17T03:02:00;102217.66;;;7.25;100.00
79703;BME280;69172;52.352;5.006;2024-03-17T03:04:26;102224.31;;;7.23;100.00
79703;BME280;69172;52.352;5.006;2024-03-17T03:06:52;102216.38;;;7.19;100.00
79703;BME280;69172;52.352;5.006;2024-03-17T03:09:19;102220.22;;;7.25;100.00
79703;BME280;69172;52.352;5.006;2024-03-17T03:12:01;102213.31;;;7.24;100.00
79703;BME280;69172;52.352;5.006;2024-03-17T03:14:29;102223.25;;;7.20;100.00
79703;BME280;69172;52.352;5.006;2024-03-17T03:16:55;102212.75;;;7.17;100.00
79703;BME280;69172;52.352;5.006;2024-03-17T03:19:20;102212.41;;;7.23;100.00
79703;BME280;69172;52.352;5.006;2024-03-17T03:21:46;102207.03;;;7.20;100.00
79703;BME280;69172;52.352;5.006;2024-03-17T03:24:13;102214.97;;;7.23;100.00
79703;BME280;69172;52.352;5.006;2024-03-17T03:26:39;102214.72;;;7.20;100.00
79703;BME280;69172;52.352;5.006;2024-03-17T03:29:04;102208.69;;;7.19;100.00
79703;BME280;69172;52.352;5.006;2024-03-17T03:31:32;102208.81;;;7.21;100.00
79703;BME280;69172;52.352;5.006;2024-03-17T03:33:59;102206.25;;;7.21;100.00
79703;BME280;69172;52.352;5.006;2024-03-17T03:36:28;102201.41;;;7.24;100.00
79703;BME280;69172;52.352;5.006;2024-03-17T03:38:54;102204.09;;;7.26;100.00
79703;BME280;69172;52.352;5.006;2024-03-17T03:41:22;102204.38;;;7.29;100.00
79703;BME280;69172;52.352;5.006;2024-03-17T03:43:48;102190.22;;;7.32;100.00
79703;BME280;69172;52.352;5.006;2024-03-17T03:46:13;102196.22;;;7.33;100.00
79703;BME280;69172;52.352;5.006;2024-03-17T03:48:39;102194.28;;;7.30;100.00
79703;BME280;69172;52.352;5.006;2024-03-17T03:51:08;102183.91;;;7.29;100.00
79703;BME280;69172;52.352;5.006;2024-03-17T03:53:35;102179.13;;;7.23;100.00
79703;BME280;69172;52.352;5.006;2024-03-17T03:56:03;102169.06;;;7.25;100.00
79703;BME280;69172;52.352;5.006;2024-03-17T03:58:35;102174.19;;;7.25;100.00
79703;BME280;69172;52.352;5.006;2024-03-17T04:01:06;102161.38;;;7.25;100.00
79703;BME280;69172;52.352;5.006;2024-03-17T04:03:35;102151.91;;;7.24;100.00
79703;BME280;69172;52.352;5.006;2024-03-17T04:06:07;102143.66;;;7.17;100.00
79703;BME280;69172;52.352;5.006;2024-03-17T04:08:34;102143.81;;;7.19;100.00
79703;BME280;69172;52.352;5.006;2024-03-17T04:11:01;102127.00;;;7.12;100.00
79703;BME280;69172;52.352;5.006;2024-03-17T04:13:29;102134.22;;;7.16;100.00
79703;BME280;69172;52.352;5.006;2024-03-17T04:16:04;102135.75;;;7.14;100.00
79703;BME280;69172;52.352;5.006;2024-03-17T04:18:32;102129.72;;;7.14;100.00
79703;BME280;69172;52.352;5.006;2024-03-17T04:21:02;102124.59;;;7.14;100.00
79703;BME280;69172;52.352;5.006;2024-03-17T04:23:28;102130.88;;;7.17;100.00
79703;BME280;69172;52.352;5.006;2024-03-17T04:25:54;102123.75;;;7.24;100.00
79703;BME280;69172;52.352;5.006;2024-03-17T04:28:20;102121.81;;;7.21;100.00
79703;BME280;69172;52.352;5.006;2024-03-17T04:30:46;102116.72;;;7.21;100.00
79703;BME280;69172;52.352;5.006;2024-03-17T04:33:12;102113.88;;;7.18;100.00
79703;BME280;69172;52.352;5.006;2024-03-17T04:35:39;102113.75;;;7.16;100.00
79703;BME280;69172;52.352;5.006;2024-03-17T04:38:05;102117.84;;;7.14;100.00
79703;BME280;69172;52.352;5.006;2024-03-17T04:40:32;102118.25;;;7.19;100.00
79703;BME280;69172;52.352;5.006;2024-03-17T04:43:01;102123.97;;;7.16;100.00
79703;BME280;69172;52.352;5.006;2024-03-17T04:45:27;102133.44;;;7.17;100.00
79703;BME280;69172;52.352;5.006;2024-03-17T04:47:52;102131.50;;;7.15;100.00
79703;BME280;69172;52.352;5.006;2024-03-17T04:50:19;102128.69;;;7.12;100.00
79703;BME280;69172;52.352;5.006;2024-03-17T04:52:45;102125.34;;;7.13;100.00
79703;BME280;69172;52.352;5.006;2024-03-17T04:55:11;102126.13;;;7.12;100.00
79703;BME280;69172;52.352;5.006;2024-03-17T04:57:36;102133.53;;;7.09;100.00
79703;BME280;69172;52.352;5.006;2024-03-17T05:00:03;102132.63;;;7.08;100.00
79703;BME280;69172;52.352;5.006;2024-03-17T05:02:32;102123.66;;;7.03;100.00
79703;BME280;69172;52.352;5.006;2024-03-17T05:04:59;102119.16;;;7.01;100.00
79703;BME280;69172;52.352;5.006;2024-03-17T05:07:25;102118.88;;;6.98;100.00
79703;BME280;69172;52.352;5.006;2024-03-17T05:09:51;102117.56;;;6.93;100.00
79703;BME280;69172;52.352;5.006;2024-03-17T05:12:16;102119.06;;;6.91;100.00
79703;BME280;69172;52.352;5.006;2024-03-17T05:14:42;102114.75;;;6.90;100.00
79703;BME280;69172;52.352;5.006;2024-03-17T05:17:07;102112.19;;;6.90;100.00
79703;BME280;69172;52.352;5.006;2024-03-17T05:19:32;102107.69;;;6.87;100.00
79703;BME280;69172;52.352;5.006;2024-03-17T05:21:58;102115.50;;;6.89;100.00
79703;BME280;69172;52.352;5.006;2024-03-17T05:24:23;102111.41;;;6.91;100.00
79703;BME280;69172;52.352;5.006;2024-03-17T05:26:48;102113.97;;;6.91;100.00
79703;BME280;69172;52.352;5.006;2024-03-17T05:29:14;102104.16;;;6.95;100.00
79703;BME280;69172;52.352;5.006;2024-03-17T05:31:39;102111.34;;;6.99;100.00
79703;BME280;69172;52.352;5.006;2024-03-17T05:34:11;102116.16;;;6.96;100.00
79703;BME280;69172;52.352;5.006;2024-03-17T05:36:37;102101.72;;;6.97;100.00
79703;BME280;69172;52.352;5.006;2024-03-17T05:39:03;102112.88;;;6.97;100.00
79703;BME280;69172;52.352;5.006;2024-03-17T05:41:28;102113.16;;;7.00;100.00
79703;BME280;69172;52.352;5.006;2024-03-17T05:43:54;102124.28;;;7.01;100.00
79703;BME280;69172;52.352;5.006;2024-03-17T05:46:24;102118.25;;;7.00;100.00
79703;BME280;69172;52.352;5.006;2024-03-17T05:48:51;102133.88;;;7.03;100.00
79703;BME280;69172;52.352;5.006;2024-03-17T05:51:16;102123.66;;;7.03;100.00
79703;BME280;69172;52.352;5.006;2024-03-17T05:53:41;102126.50;;;7.06;100.00
79703;BME280;69172;52.352;5.006;2024-03-17T05:56:09;102111.00;;;7.05;100.00
79703;BME280;69172;52.352;5.006;2024-03-17T05:58:36;102123.31;;;7.09;100.00
79703;BME280;69172;52.352;5.006;2024-03-17T06:01:03;102115.75;;;7.10;100.00
79703;BME280;69172;52.352;5.006;2024-03-17T06:03:29;102120.53;;;7.16;100.00
79703;BME280;69172;52.352;5.006;2024-03-17T06:05:54;102123.19;;;7.17;100.00
79703;BME280;69172;52.352;5.006;2024-03-17T06:08:20;102122.59;;;7.20;100.00
79703;BME280;69172;52.352;5.006;2024-03-17T06:10:49;102124.53;;;7.23;100.00
79703;BME280;69172;52.352;5.006;2024-03-17T06:13:14;102121.19;;;7.24;100.00
79703;BME280;69172;52.352;5.006;2024-03-17T06:15:42;102126.75;;;7.28;100.00
79703;BME280;69172;52.352;5.006;2024-03-17T06:18:12;102128.78;;;7.32;100.00
79703;BME280;69172;52.352;5.006;2024-03-17T06:20:45;102126.78;;;7.38;100.00
79703;BME280;69172;52.352;5.006;2024-03-17T06:23:24;102124.78;;;7.44;100.00
79703;BME280;69172;52.352;5.006;2024-03-17T06:26:00;102122.34;;;7.46;100.00
79703;BME280;69172;52.352;5.006;2024-03-17T06:28:48;102126.47;;;7.54;100.00
79703;BME280;69172;52.352;5.006;2024-03-17T06:31:13;102120.72;;;7.56;100.00
79703;BME280;69172;52.352;5.006;2024-03-17T06:33:38;102122.28;;;7.64;100.00
79703;BME280;69172;52.352;5.006;2024-03-17T06:36:04;102124.22;;;7.67;100.00
79703;BME280;69172;52.352;5.006;2024-03-17T06:38:31;102124.47;;;7.70;100.00
79703;BME280;69172;52.352;5.006;2024-03-17T06:40:56;102128.84;;;7.71;100.00
79703;BME280;69172;52.352;5.006;2024-03-17T06:43:24;102119.34;;;7.70;100.00
79703;BME280;69172;52.352;5.006;2024-03-17T06:45:57;102118.50;;;7.79;100.00
79703;BME280;69172;52.352;5.006;2024-03-17T06:48:25;102111.97;;;7.83;100.00
79703;BME280;69172;52.352;5.006;2024-03-17T06:50:51;102111.59;;;7.89;100.00
79703;BME280;69172;52.352;5.006;2024-03-17T06:53:18;102103.91;;;7.89;100.00
79703;BME280;69172;52.352;5.006;2024-03-17T06:55:51;102104.97;;;7.91;100.00
79703;BME280;69172;52.352;5.006;2024-03-17T06:58:20;102109.19;;;7.90;100.00
79703;BME280;69172;52.352;5.006;2024-03-17T07:00:58;102104.97;;;7.91;100.00
79703;BME280;69172;52.352;5.006;2024-03-17T07:03:25;102108.66;;;7.94;100.00
79703;BME280;69172;52.352;5.006;2024-03-17T07:06:01;102112.13;;;7.95;100.00
79703;BME280;69172;52.352;5.006;2024-03-17T07:08:31;102109.72;;;7.96;100.00
79703;BME280;69172;52.352;5.006;2024-03-17T07:11:01;102112.31;;;8.06;100.00
79703;BME280;69172;52.352;5.006;2024-03-17T07:13:29;102116.03;;;8.10;100.00
79703;BME280;69172;52.352;5.006;2024-03-17T07:15:55;102106.28;;;8.16;100.00
79703;BME280;69172;52.352;5.006;2024-03-17T07:18:20;102114.22;;;8.19;100.00
79703;BME280;69172;52.352;5.006;2024-03-17T07:20:46;102122.84;;;8.29;100.00
79703;BME280;69172;52.352;5.006;2024-03-17T07:23:14;102106.47;;;8.27;100.00
79703;BME280;69172;52.352;5.006;2024-03-17T07:25:54;102107.09;;;8.35;100.00
79703;BME280;69172;52.352;5.006;2024-03-17T07:28:20;102103.78;;;8.46;100.00
79703;BME280;69172;52.352;5.006;2024-03-17T07:30:50;102104.94;;;8.50;100.00
79703;BME280;69172;52.352;5.006;2024-03-17T07:33:17;102100.31;;;8.46;100.00
79703;BME280;69172;52.352;5.006;2024-03-17T07:35:53;102093.78;;;8.49;100.00
79703;BME280;69172;52.352;5.006;2024-03-17T07:38:20;102095.47;;;8.59;100.00
79703;BME280;69172;52.352;5.006;2024-03-17T07:41:02;102090.06;;;8.66;100.00
79703;BME280;69172;52.352;5.006;2024-03-17T07:43:29;102091.97;;;8.78;100.00
79703;BME280;69172;52.352;5.006;2024-03-17T07:46:03;102093.25;;;8.93;100.00
79703;BME280;69172;52.352;5.006;2024-03-17T07:48:33;102093.81;;;9.11;100.00
79703;BME280;69172;52.352;5.006;2024-03-17T07:51:01;102091.47;;;9.24;99.97
79703;BME280;69172;52.352;5.006;2024-03-17T07:53:33;102084.41;;;9.32;98.99
79703;BME280;69172;52.352;5.006;2024-03-17T07:56:00;102097.94;;;9.51;96.89
79703;BME280;69172;52.352;5.006;2024-03-17T07:58:27;102087.03;;;9.43;97.89
79703;BME280;69172;52.352;5.006;2024-03-17T08:00:57;102081.19;;;9.34;98.16
79703;BME280;69172;52.352;5.006;2024-03-17T08:03:26;102086.03;;;9.41;98.20
79703;BME280;69172;52.352;5.006;2024-03-17T08:05:53;102082.13;;;9.46;98.52
79703;BME280;69172;52.352;5.006;2024-03-17T08:08:19;102079.09;;;9.62;95.89
79703;BME280;69172;52.352;5.006;2024-03-17T08:10:45;102088.56;;;9.73;96.29
79703;BME280;69172;52.352;5.006;2024-03-17T08:13:18;102089.69;;;9.77;95.69
79703;BME280;69172;52.352;5.006;2024-03-17T08:15:44;102092.03;;;9.74;96.32
79703;BME280;69172;52.352;5.006;2024-03-17T08:18:13;102094.75;;;9.75;96.89
79703;BME280;69172;52.352;5.006;2024-03-17T08:20:40;102096.56;;;9.88;96.70
79703;BME280;69172;52.352;5.006;2024-03-17T08:23:06;102096.41;;;9.96;95.58
79703;BME280;69172;52.352;5.006;2024-03-17T08:25:33;102088.75;;;10.08;94.42
79703;BME280;69172;52.352;5.006;2024-03-17T08:28:00;102099.09;;;10.20;94.62
79703;BME280;69172;52.352;5.006;2024-03-17T08:30:26;102088.75;;;10.30;94.26
79703;BME280;69172;52.352;5.006;2024-03-17T08:32:51;102083.19;;;10.47;90.91
79703;BME280;69172;52.352;5.006;2024-03-17T08:35:17;102087.00;;;10.52;90.77
79703;BME280;69172;52.352;5.006;2024-03-17T08:37:42;102093.56;;;10.70;90.57
79703;BME280;69172;52.352;5.006;2024-03-17T08:40:09;102094.16;;;10.89;90.96
79703;BME280;69172;52.352;5.006;2024-03-17T08:42:34;102097.28;;;10.97;89.31
79703;BME280;69172;52.352;5.006;2024-03-17T08:44:59;102090.91;;;10.92;89.48
79703;BME280;69172;52.352;5.006;2024-03-17T08:47:25;102082.94;;;10.77;90.14
79703;BME280;69172;52.352;5.006;2024-03-17T08:49:51;102087.75;;;10.84;89.58
79703;BME280;69172;52.352;5.006;2024-03-17T08:52:19;102081.78;;;10.73;90.61
79703;BME280;69172;52.352;5.006;2024-03-17T08:54:46;102086.38;;;10.66;90.74
79703;BME280;69172;52.352;5.006;2024-03-17T08:57:13;102082.47;;;10.59;92.25
79703;BME280;69172;52.352;5.006;2024-03-17T08:59:41;102087.03;;;10.63;91.45
79703;BME280;69172;52.352;5.006;2024-03-17T09:02:12;102089.97;;;10.80;91.65
79703;BME280;69172;52.352;5.006;2024-03-17T09:04:40;102079.47;;;10.65;94.04
79703;BME280;69172;52.352;5.006;2024-03-17T09:07:05;102092.91;;;10.84;91.89
79703;BME280;69172;52.352;5.006;2024-03-17T09:09:31;102094.16;;;10.89;92.35
79703;BME280;69172;52.352;5.006;2024-03-17T09:11:56;102094.03;;;10.99;90.73
79703;BME280;69172;52.352;5.006;2024-03-17T09:14:23;102081.94;;;11.10;90.92
79703;BME280;69172;52.352;5.006;2024-03-17T09:16:49;102085.53;;;11.23;91.29
79703;BME280;69172;52.352;5.006;2024-03-17T09:19:14;102083.47;;;11.54;89.00
79703;BME280;69172;52.352;5.006;2024-03-17T09:21:40;102084.69;;;11.59;88.43
79703;BME280;69172;52.352;5.006;2024-03-17T09:24:06;102075.41;;;11.73;86.64
79703;BME280;69172;52.352;5.006;2024-03-17T09:26:37;102071.22;;;11.86;85.12
79703;BME280;69172;52.352;5.006;2024-03-17T09:29:11;102072.59;;;12.06;83.96
79703;BME280;69172;52.352;5.006;2024-03-17T09:31:36;102066.41;;;12.04;84.55
79703;BME280;69172;52.352;5.006;2024-03-17T09:34:02;102068.03;;;11.90;85.40
79703;BME280;69172;52.352;5.006;2024-03-17T09:36:28;102059.50;;;12.03;85.14
79703;BME280;69172;52.352;5.006;2024-03-17T09:38:53;102064.97;;;12.08;84.62
79703;BME280;69172;52.352;5.006;2024-03-17T09:41:24;102052.97;;;12.08;84.95
79703;BME280;69172;52.352;5.006;2024-03-17T09:43:55;102054.69;;;12.21;84.01
79703;BME280;69172;52.352;5.006;2024-03-17T09:46:25;102061.28;;;12.42;83.00
79703;BME280;69172;52.352;5.006;2024-03-17T09:48:55;102063.03;;;12.54;82.88
79703;BME280;69172;52.352;5.006;2024-03-17T09:51:24;102063.13;;;12.56;80.71
79703;BME280;69172;52.352;5.006;2024-03-17T09:53:51;102056.03;;;12.40;81.94
79703;BME280;69172;52.352;5.006;2024-03-17T09:56:19;102064.25;;;12.35;82.30
79703;BME280;69172;52.352;5.006;2024-03-17T09:58:47;102063.06;;;12.30;83.39
79703;BME280;69172;52.352;5.006;2024-03-17T10:01:33;102055.09;;;12.27;82.68
79703;BME280;69172;52.352;5.006;2024-03-17T10:03:58;102055.75;;;12.11;84.72
79703;BME280;69172;52.352;5.006;2024-03-17T10:06:57;102056.19;;;12.17;85.46
79703;BME280;69172;52.352;5.006;2024-03-17T10:09:31;102046.97;;;12.34;85.26
79703;BME280;69172;52.352;5.006;2024-03-17T10:11:57;102048.66;;;12.58;82.47
79703;BME280;69172;52.352;5.006;2024-03-17T10:14:29;102047.53;;;12.54;82.44
79703;BME280;69172;52.352;5.006;2024-03-17T10:16:54;102046.19;;;12.73;81.91
79703;BME280;69172;52.352;5.006;2024-03-17T10:19:26;102048.69;;;12.84;82.19
79703;BME280;69172;52.352;5.006;2024-03-17T10:22:00;102042.13;;;12.89;81.28
79703;BME280;69172;52.352;5.006;2024-03-17T10:24:28;102042.94;;;13.01;81.01
79703;BME280;69172;52.352;5.006;2024-03-17T10:26:59;102037.16;;;13.32;79.96
79703;BME280;69172;52.352;5.006;2024-03-17T10:29:29;102031.03;;;13.17;78.73
79703;BME280;69172;52.352;5.006;2024-03-17T10:31:59;102030.06;;;13.55;77.48
79703;BME280;69172;52.352;5.006;2024-03-17T10:34:29;102027.03;;;13.22;77.04
79703;BME280;69172;52.352;5.006;2024-03-17T10:37:20;102026.75;;;13.30;77.54
79703;BME280;69172;52.352;5.006;2024-03-17T10:39:51;102024.16;;;13.30;77.21
79703;BME280;69172;52.352;5.006;2024-03-17T10:42:30;102023.84;;;13.39;77.67
79703;BME280;69172;52.352;5.006;2024-03-17T10:44:57;102026.13;;;13.47;75.43
79703;BME280;69172;52.352;5.006;2024-03-17T10:47:25;102024.28;;;13.59;76.89
79703;BME280;69172;52.352;5.006;2024-03-17T10:49:55;102018.19;;;13.72;75.95
79703;BME280;69172;52.352;5.006;2024-03-17T10:52:21;102017.81;;;13.66;76.56
79703;BME280;69172;52.352;5.006;2024-03-17T10:54:49;102009.75;;;13.75;75.38
79703;BME280;69172;52.352;5.006;2024-03-17T10:59:47;102007.53;;;13.95;74.05
79703;BME280;69172;52.352;5.006;2024-03-17T11:02:21;102005.03;;;13.82;75.17
79703;BME280;69172;52.352;5.006;2024-03-17T11:04:54;102003.56;;;13.72;76.01
79703;BME280;69172;52.352;5.006;2024-03-17T11:07:21;101994.09;;;13.73;75.99
79703;BME280;69172;52.352;5.006;2024-03-17T11:09:48;101992.56;;;13.90;75.14
79703;BME280;69172;52.352;5.006;2024-03-17T11:20:37;101976.47;;;14.23;73.15
79703;BME280;69172;52.352;5.006;2024-03-17T11:23:04;101987.16;;;14.14;72.92
79703;BME280;69172;52.352;5.006;2024-03-17T11:25:38;101987.72;;;14.23;72.43
79703;BME280;69172;52.352;5.006;2024-03-17T11:28:04;101977.13;;;14.34;71.75
79703;BME280;69172;52.352;5.006;2024-03-17T11:39:04;101979.03;;;14.08;73.16
79703;BME280;69172;52.352;5.006;2024-03-17T11:41:44;101984.72;;;14.03;74.92
79703;BME280;69172;52.352;5.006;2024-03-17T11:49:29;101976.06;;;14.02;75.90
79703;BME280;69172;52.352;5.006;2024-03-17T11:52:00;101974.03;;;13.97;76.78
79703;BME280;69172;52.352;5.006;2024-03-17T11:54:27;101976.78;;;13.85;78.18
79703;BME280;69172;52.352;5.006;2024-03-17T11:56:55;101966.09;;;14.08;77.27
79703;BME280;69172;52.352;5.006;2024-03-17T11:59:21;101968.06;;;14.12;77.97
79703;BME280;69172;52.352;5.006;2024-03-17T12:01:49;101969.78;;;14.26;77.24
79703;BME280;69172;52.352;5.006;2024-03-17T12:04:15;101952.41;;;14.39;77.38
79703;BME280;69172;52.352;5.006;2024-03-17T12:06:48;101959.50;;;14.28;77.80
79703;BME280;69172;52.352;5.006;2024-03-17T12:09:43;101948.47;;;14.45;76.69
79703;BME280;69172;52.352;5.006;2024-03-17T12:12:20;101949.34;;;14.60;75.49
79703;BME280;69172;52.352;5.006;2024-03-17T12:14:46;101951.56;;;14.54;76.48
79703;BME280;69172;52.352;5.006;2024-03-17T12:17:19;101937.75;;;14.39;78.20
79703;BME280;69172;52.352;5.006;2024-03-17T12:19:45;101943.88;;;14.70;77.30
79703;BME280;69172;52.352;5.006;2024-03-17T12:22:20;101942.72;;;14.80;77.36
79703;BME280;69172;52.352;5.006;2024-03-17T12:24:54;101932.03;;;14.90;77.09
79703;BME280;69172;52.352;5.006;2024-03-17T12:27:22;101932.09;;;15.22;74.68
79703;BME280;69172;52.352;5.006;2024-03-17T12:29:50;101932.03;;;15.21;75.78
79703;BME280;69172;52.352;5.006;2024-03-17T12:32:19;101927.09;;;15.25;74.71
79703;BME280;69172;52.352;5.006;2024-03-17T12:34:49;101920.34;;;15.13;75.54
79703;BME280;69172;52.352;5.006;2024-03-17T12:39:46;101916.66;;;14.93;76.75
79703;BME280;69172;52.352;5.006;2024-03-17T12:42:16;101916.00;;;14.81;77.89
79703;BME280;69172;52.352;5.006;2024-03-17T12:47:18;101915.13;;;14.80;78.51
79703;BME280;69172;52.352;5.006;2024-03-17T12:49:48;101911.16;;;14.87;79.70
79703;BME280;69172;52.352;5.006;2024-03-17T12:54:56;101896.88;;;14.48;81.11
79703;BME280;69172;52.352;5.006;2024-03-17T12:57:45;101891.53;;;14.45;81.00
79703;BME280;69172;52.352;5.006;2024-03-17T13:00:30;101898.75;;;14.36;82.91
79703;BME280;69172;52.352;5.006;2024-03-17T13:03:03;101893.41;;;14.33;84.73
79703;BME280;69172;52.352;5.006;2024-03-17T13:05:29;101886.06;;;14.11;86.20
79703;BME280;69172;52.352;5.006;2024-03-17T13:07:56;101899.84;;;14.10;86.65
79703;BME280;69172;52.352;5.006;2024-03-17T13:10:27;101897.41;;;13.99;90.40
79703;BME280;69172;52.352;5.006;2024-03-17T13:13:08;101897.22;;;13.96;91.31
79703;BME280;69172;52.352;5.006;2024-03-17T13:15:35;101886.53;;;13.90;93.55
79703;BME280;69172;52.352;5.006;2024-03-17T13:18:02;101894.88;;;13.71;93.72
79703;BME280;69172;52.352;5.006;2024-03-17T13:20:29;101884.63;;;13.72;91.64
79703;BME280;69172;52.352;5.006;2024-03-17T13:22:56;101882.75;;;13.70;90.82
79703;BME280;69172;52.352;5.006;2024-03-17T13:25:24;101879.94;;;13.80;90.64
79703;BME280;69172;52.352;5.006;2024-03-17T13:27:55;101869.78;;;13.83;90.59
79703;BME280;69172;52.352;5.006;2024-03-17T13:30:26;101864.31;;;13.93;91.03
79703;BME280;69172;52.352;5.006;2024-03-17T13:32:56;101867.06;;;14.11;88.61